Главная страница
METAR-TAF:

METAR-TAF

Аэропорты :

Багдад, Ирак

широта: 33-15-45N, долгота: 44-14-04E, высота над уровнем моря: 35 м

Текущие метеонаблюдения

Эта сводка был подготовлена 51 минут назад, в 07:00 UTC
Ветер 6 Узел от юго-западный
Температура 14°C
Влажность 55%
Давление 1017 hPa
Видимость: 2800 м
пыль, взвешенная над обширной территорией

METAR: ORBI 240700Z 22006KT 2800 DU NSC 14/05 Q1017 NOSIG

Время: 10:51 (07:51 UTC)

Прогноз

Эта сводка был подготовлена 3 часа и 51 минут назад, в 04:00 UTC
Прогноз действительный с 24-го 06 UTC до 25-го 06 UTC
Ветер 3 Узел переменных направлений
Видимость: 7000 м
небольшая облачность на высоте 3500 фута

TAF: ORBI 240400Z 2406/2506 VRB03KT 7000 FEW035

Метеонаблюдения и прогнозы для более 4000 аэропортов (сводки METAR и TAF).

Имеющиеся станции представлены на карте желтыми и красными точками.

Чтобы увидеть название станции, наведите на нее мышь.

Затем щелкните, чтобы увидеть метеонаблюдения и метеопрогнозы.

Управление картой: чтобы увеличить масштаб, щелкните зеленые кнопки с черным крестиком; чтобы уменьшить масштаб, щелкните зеленую кнопку с тире; для просмотра соседних карт щелкайте зеленые стрелки.


METAR-TAF: